Time;durP1;ratioP1;P1;durP2;ratioP2;P2;SDS_P1;SDS_P2;PMS_P1;PMS_P2;Temp;Humidity;BMP_temperature;BMP_pressure;BME280_temperature;BME280_humidity;BME280_pressure;Samples;Min_cycle;Max_cycle;Signal;HPM_P1;HPM_P2
2021/04/28 00:03:27;;;;;;;3.83;2.45;;;13.40;33.60;;;;;;10146538;28;20055;-83
2021/04/28 00:08:21;;;;;;;7.70;3.00;;;13.30;34.30;;;;;;10148225;28;20497;-83
2021/04/28 00:13:17;;;;;;;7.20;3.50;;;13.30;34.40;;;;;;10147833;28;20541;-83
2021/04/28 00:18:11;;;;;;;7.15;3.80;;;13.20;34.60;;;;;;10145913;28;20124;-84
2021/04/28 00:23:05;;;;;;;5.97;3.97;;;13.20;35.20;;;;;;10146825;28;20581;-82
2021/04/28 00:28:08;;;;;;;8.52;3.67;;;13.10;35.60;;;;;;10146349;28;20093;-80
2021/04/28 00:33:01;;;;;;;6.15;3.42;;;13.40;35.90;;;;;;10144857;28;20048;-81
2021/04/28 00:37:56;;;;;;;8.32;3.60;;;12.70;35.60;;;;;;10153700;28;20051;-78
2021/04/28 00:42:49;;;;;;;7.63;3.47;;;13.00;36.20;;;;;;10148324;28;20065;-78
2021/04/28 00:47:43;;;;;;;7.00;3.42;;;13.00;36.10;;;;;;10144469;28;20396;-78
2021/04/28 00:52:38;;;;;;;8.30;4.20;;;13.00;36.10;;;;;;10142515;28;20041;-79
2021/04/28 00:57:32;;;;;;;7.68;3.65;;;12.90;36.60;;;;;;10143117;28;20284;-78
2021/04/28 01:02:26;;;;;;;5.25;3.30;;;12.80;36.00;;;;;;10144769;28;20384;-80
2021/04/28 01:07:20;;;;;;;9.57;4.22;;;12.70;36.20;;;;;;10142970;28;20495;-79
2021/04/28 01:12:14;;;;;;;7.93;3.30;;;12.70;36.30;;;;;;10143044;28;20045;-80
2021/04/28 01:17:09;;;;;;;7.78;3.63;;;12.70;36.90;;;;;;10144088;28;20049;-80
2021/04/28 01:22:02;;;;;;;7.70;3.83;;;12.60;37.30;;;;;;10143493;28;20058;-79
2021/04/28 01:27:02;;;;;;;5.32;3.13;;;12.60;37.40;;;;;;10142722;28;20048;-80
2021/04/28 01:31:58;;;;;;;6.32;3.47;;;12.60;37.30;;;;;;10143583;28;20463;-77
2021/04/28 01:36:54;;;;;;;8.57;3.35;;;12.50;37.20;;;;;;10142820;28;20063;-79
2021/04/28 01:41:50;;;;;;;9.25;2.88;;;12.40;37.30;;;;;;10142992;28;20048;-77
2021/04/28 01:46:45;;;;;;;7.72;3.50;;;12.30;36.80;;;;;;10142519;28;20128;-78
2021/04/28 01:51:42;;;;;;;9.95;3.78;;;12.30;37.40;;;;;;10141116;28;20056;-78
2021/04/28 01:56:36;;;;;;;9.18;3.42;;;12.30;37.50;;;;;;10143012;28;20075;-77
2021/04/28 02:01:57;;;;;;;6.32;3.17;;;12.40;37.30;;;;;;10140656;28;20048;-77
2021/04/28 02:06:57;;;;;;;8.32;3.92;;;12.30;37.00;;;;;;10140691;28;20048;-78
2021/04/28 02:11:51;;;;;;;6.45;3.47;;;12.20;37.50;;;;;;10140582;28;20033;-78
2021/04/28 02:16:46;;;;;;;6.90;3.60;;;12.10;37.60;;;;;;10141649;28;20044;-78
2021/04/28 02:21:42;;;;;;;7.32;3.80;;;12.10;38.20;;;;;;10135263;28;20052;-77
2021/04/28 02:26:55;;;;;;;8.32;3.80;;;12.00;38.30;;;;;;10140804;28;20495;-78
2021/04/28 02:31:49;;;;;;;7.38;3.67;;;12.00;38.70;;;;;;10141407;28;20044;-77
2021/04/28 02:36:51;;;;;;;9.25;4.28;;;11.80;38.90;;;;;;10122850;28;20498;-78
2021/04/28 02:42:06;;;;;;;9.25;3.50;;;11.80;39.30;;;;;;10140658;28;20052;-77
2021/04/28 02:47:01;;;;;;;5.88;3.55;;;11.50;39.10;;;;;;10139428;28;20471;-77
2021/04/28 02:52:00;;;;;;;7.88;3.85;;;11.60;39.10;;;;;;10138780;28;20056;-77
2021/04/28 02:57:11;;;;;;;7.20;3.22;;;13.20;39.90;;;;;;10139700;28;20076;-78
2021/04/28 03:02:07;;;;;;;8.20;3.70;;;11.50;39.50;;;;;;10139121;28;20049;-76
2021/04/28 03:07:02;;;;;;;6.20;3.03;;;11.40;39.70;;;;;;10138701;28;20063;-78
2021/04/28 03:11:57;;;;;;;8.15;3.60;;;11.50;39.60;;;;;;10138882;28;20048;-78
2021/04/28 03:16:56;;;;;;;8.02;3.40;;;11.30;40.00;;;;;;10138255;28;20128;-78
2021/04/28 03:21:51;;;;;;;7.85;3.97;;;11.20;40.30;;;;;;10139123;28;20048;-78
2021/04/28 03:26:46;;;;;;;9.88;4.03;;;11.00;40.60;;;;;;10139803;28;20056;-78
2021/04/28 03:31:40;;;;;;;9.45;4.28;;;12.80;41.70;;;;;;10140090;28;20048;-78
2021/04/28 03:36:35;;;;;;;11.65;4.20;;;11.00;41.00;;;;;;10142551;28;20052;-82
2021/04/28 03:41:53;;;;;;;10.63;4.75;;;11.00;41.10;;;;;;10140838;28;20056;-84
2021/04/28 03:46:46;;;;;;;11.13;4.18;;;11.00;41.10;;;;;;10140114;28;20048;-84
2021/04/28 03:51:40;;;;;;;7.53;3.67;;;11.00;41.00;;;;;;10139504;28;20518;-85
2021/04/28 03:56:42;;;;;;;7.18;3.85;;;11.00;41.00;;;;;;10141438;28;20044;-84
2021/04/28 04:01:37;;;;;;;10.43;4.10;;;11.10;41.00;;;;;;10140097;28;20068;-84
2021/04/28 04:06:33;;;;;;;12.70;4.05;;;11.10;40.80;;;;;;10140802;28;20052;-85
2021/04/28 04:12:01;;;;;;;7.60;3.60;;;11.10;40.90;;;;;;10139055;28;20391;-81
2021/04/28 04:17:04;;;;;;;9.60;3.92;;;11.10;41.00;;;;;;10138898;28;20157;-82
2021/04/28 04:21:59;;;;;;;9.43;3.70;;;11.10;40.90;;;;;;10157141;28;20044;-88
2021/04/28 04:27:09;;;;;;;15.48;4.88;;;11.10;40.80;;;;;;10150163;28;20048;-82
2021/04/28 04:32:22;;;;;;;10.18;4.10;;;11.10;40.90;;;;;;10148458;28;20044;-83
2021/04/28 04:37:55;;;;;;;13.77;4.47;;;11.00;40.90;;;;;;10149159;28;20074;-84
2021/04/28 04:43:18;;;;;;;8.93;3.90;;;11.00;41.00;;;;;;10147199;28;20064;-83
2021/04/28 04:48:30;;;;;;;16.77;4.88;;;11.10;40.90;;;;;;10145273;28;20041;-82
2021/04/28 04:53:24;;;;;;;12.02;4.10;;;11.10;40.80;;;;;;10146644;28;20049;-82
2021/04/28 04:58:18;;;;;;;10.90;3.83;;;11.00;40.80;;;;;;10148236;28;20486;-83
2021/04/28 05:03:12;;;;;;;9.05;4.32;;;11.00;40.70;;;;;;10144698;28;20041;-81
2021/04/28 05:08:07;;;;;;;7.45;3.92;;;11.00;40.40;;;;;;10145038;28;20048;-80
2021/04/28 05:13:05;;;;;;;12.02;5.00;;;11.00;40.50;;;;;;10144088;28;20055;-81
2021/04/28 05:17:59;;;;;;;9.93;4.03;;;11.10;40.50;;;;;;10141986;28;20109;-79
2021/04/28 05:22:53;;;;;;;12.38;5.82;;;11.10;40.30;;;;;;10144052;28;20098;-85
2021/04/28 05:27:59;;;;;;;22.67;5.88;;;11.20;40.20;;;;;;10145029;28;20044;-86
2021/04/28 05:32:52;;;;;;;8.85;4.82;;;11.30;40.20;;;;;;10144647;28;20051;-85
2021/04/28 05:37:46;;;;;;;9.60;4.40;;;11.30;40.10;;;;;;10142438;28;20052;-84
2021/04/28 05:42:40;;;;;;;14.23;4.57;;;11.40;40.10;;;;;;10143486;28;20580;-85
2021/04/28 05:47:35;;;;;;;8.73;4.88;;;;;;;;;;10142790;28;20051;-83
2021/04/28 05:52:29;;;;;;;11.85;4.95;;;13.50;41.00;;;;;;10127007;28;20058;-80
2021/04/28 05:57:24;;;;;;;8.05;5.10;;;10.20;38.00;;;;;;10140406;28;20053;-83
2021/04/28 06:02:17;;;;;;;12.82;4.28;;;12.20;39.20;;;;;;10147076;28;20056;-83
2021/04/28 06:07:11;;;;;;;13.68;4.88;;;10.80;39.40;;;;;;10141907;28;20486;-82
2021/04/28 06:12:05;;;;;;;9.48;5.30;;;12.10;39.10;;;;;;10143336;28;20405;-85
2021/04/28 06:17:00;;;;;;;10.95;5.20;;;;;;;;;;10148435;28;20040;-84
2021/04/28 06:21:53;;;;;;;9.80;4.93;;;;;;;;;;10159933;28;20142;-87
2021/04/28 06:26:51;;;;;;;11.65;4.80;;;;;;;;;;10161228;28;20060;-85
2021/04/28 06:31:45;;;;;;;8.43;4.75;;;;;;;;;;10177918;28;20064;-87
2021/04/28 06:36:39;;;;;;;10.50;5.05;;;11.70;39.80;;;;;;10189801;28;20134;-90
2021/04/28 06:41:32;;;;;;;10.57;5.32;;;;;;;;;;10189454;28;20571;-84
2021/04/28 06:46:27;;;;;;;9.38;4.82;;;13.00;39.10;;;;;;10181631;28;20051;-84
2021/04/28 06:51:21;;;;;;;13.27;5.18;;;11.70;39.60;;;;;;10167545;28;20062;-84
2021/04/28 06:56:20;;;;;;;10.90;5.00;;;;;;;;;;10185268;28;20048;-82
2021/04/28 07:01:14;;;;;;;14.48;6.07;;;12.80;38.80;;;;;;10165480;28;20518;-90
2021/04/28 07:06:14;;;;;;;10.60;5.35;;;;;;;;;;10166115;28;20040;-87
2021/04/28 07:11:12;;;;;;;14.13;6.63;;;;;;;;;;10183330;28;20051;-83
2021/04/28 07:16:09;;;;;;;;;;;13.10;39.10;;;;;;10170357;28;20049;-87
2021/04/28 07:21:07;;;;;;;11.82;4.72;;;;;;;;;;10172168;28;19924;-92
2021/04/28 07:26:02;;;;;;;8.43;4.10;;;13.70;38.10;;;;;;10600344;22;20052;-91
2021/04/28 07:30:58;;;;;;;8.40;4.40;;;13.30;37.30;;;;;;10063298;28;20539;-87
2021/04/28 07:35:53;;;;;;;13.77;4.20;;;;;;;;;;10075766;28;20092;-90
2021/04/28 07:40:48;;;;;;;8.45;3.80;;;;;;;;;;10052453;28;20149;-87
2021/04/28 07:45:50;;;;;;;8.98;4.00;;;;;;;;;;10074602;28;20364;-87
2021/04/28 07:50:44;;;;;;;7.65;3.80;;;;;;;;;;10094411;28;20044;-90
2021/04/28 07:55:38;;;;;;;11.95;4.15;;;;;;;;;;10070941;28;20044;-83
2021/04/28 08:00:32;;;;;;;9.50;3.70;;;14.70;37.30;;;;;;10047489;28;20496;-84
2021/04/28 08:05:27;;;;;;;9.73;4.65;;;13.90;36.60;;;;;;10062616;28;20088;-82
2021/04/28 08:10:22;;;;;;;7.82;4.18;;;;;;;;;;10053181;28;20095;-81
2021/04/28 08:15:16;;;;;;;10.82;4.63;;;16.70;37.10;;;;;;10051767;28;20047;-80
2021/04/28 08:20:11;;;;;;;11.10;4.63;;;;;;;;;;10040067;28;20061;-85
2021/04/28 08:25:08;;;;;;;7.45;3.75;;;;;;;;;;10067467;28;20045;-79
2021/04/28 08:30:02;;;;;;;7.55;4.00;;;14.50;33.50;;;;;;10049348;28;20368;-79
2021/04/28 08:35:01;;;;;;;8.13;3.80;;;14.50;34.80;;;;;;10017041;28;20064;-82
2021/04/28 08:39:58;;;;;;;7.78;3.63;;;16.30;35.40;;;;;;10048778;28;20045;-78
2021/04/28 08:44:56;;;;;;;8.98;3.20;;;;;;;;;;10048385;28;20052;-78
2021/04/28 08:49:51;;;;;;;9.55;3.00;;;13.30;33.40;;;;;;10033274;28;20053;-80
2021/04/28 08:54:46;;;;;;;11.27;3.60;;;;;;;;;;10046699;28;20067;-78
2021/04/28 08:59:41;;;;;;;5.60;3.20;;;15.40;34.00;;;;;;10048477;28;20060;-81
2021/04/28 09:04:38;;;;;;;7.43;3.78;;;;;;;;;;10045596;28;20049;-73
2021/04/28 09:09:32;;;;;;;10.57;3.28;;;16.50;35.60;;;;;;10045825;28;20050;-73
2021/04/28 09:14:30;;;;;;;6.60;3.63;;;15.30;35.00;;;;;;10046626;28;20116;-72
2021/04/28 09:19:27;;;;;;;8.77;3.90;;;15.10;33.70;;;;;;10045273;28;20041;-74
2021/04/28 09:24:48;;;;;;;12.00;3.83;;;14.90;32.20;;;;;;10063066;28;20053;-73
2021/04/28 09:30:26;;;;;;;10.43;3.90;;;14.20;33.90;;;;;;9937088;28;20084;-73
2021/04/28 09:35:22;;;;;;;7.97;3.60;;;;;;;;;;10041391;28;20053;-74
2021/04/28 09:40:18;;;;;;;7.50;3.65;;;16.70;35.00;;;;;;10059077;28;20053;-73
2021/04/28 09:45:12;;;;;;;7.18;3.78;;;16.10;34.50;;;;;;10041370;28;20079;-73
2021/04/28 09:50:06;;;;;;;7.75;3.65;;;17.00;34.80;;;;;;10041774;28;20077;-72
2021/04/28 09:55:00;;;;;;;9.27;4.32;;;;;;;;;;10041054;28;20061;-75
2021/04/28 09:59:56;;;;;;;9.88;3.92;;;;;;;;;;10058704;28;20103;-75
2021/04/28 10:04:50;;;;;;;8.27;3.45;;;;;;;;;;10059443;28;20399;-76
2021/04/28 10:09:45;;;;;;;8.30;3.75;;;;;;;;;;10053924;28;20110;-77
2021/04/28 10:14:40;;;;;;;7.68;3.72;;;;;;;;;;10037825;28;20042;-78
2021/04/28 10:19:38;;;;;;;6.78;3.95;;;;;;;;;;10058960;28;20124;-77
2021/04/28 10:24:37;;;;;;;15.25;4.07;;;;;;;;;;10025725;28;20053;-77
2021/04/28 10:29:37;;;;;;;10.50;4.03;;;15.00;31.80;;;;;;10040117;28;20076;-76
2021/04/28 10:34:36;;;;;;;9.48;3.97;;;16.10;32.00;;;;;;10023390;28;20054;-76
2021/04/28 10:39:31;;;;;;;8.05;4.03;;;;;;;;;;10040177;28;20053;-78
2021/04/28 10:44:43;;;;;;;8.63;4.00;;;;;;;;;;10057437;28;20120;-76
2021/04/28 10:50:02;;;;;;;10.20;4.20;;;17.60;30.10;;;;;;10056794;28;20140;-75
2021/04/28 10:54:57;;;;;;;12.00;4.13;;;17.30;30.00;;;;;;10039106;28;20061;-76
2021/04/28 10:59:51;;;;;;;11.05;4.60;;;;;;;;;;10057047;28;20057;-76
2021/04/28 11:04:47;;;;;;;11.32;4.28;;;17.90;31.70;;;;;;10038666;28;20136;-77
2021/04/28 11:09:41;;;;;;;10.57;4.25;;;17.50;31.60;;;;;;10040824;28;20049;-75
2021/04/28 11:14:41;;;;;;;9.27;4.55;;;;;;;;;;10011027;28;20445;-76
2021/04/28 11:19:39;;;;;;;9.45;3.72;;;19.50;32.20;;;;;;10058707;28;20057;-77
2021/04/28 11:25:06;;;;;;;7.45;4.10;;;17.70;29.60;;;;;;10058743;28;20050;-76
2021/04/28 11:30:02;;;;;;;8.27;4.00;;;;;;;;;;10026789;28;20076;-78
2021/04/28 11:35:14;;;;;;;8.43;4.38;;;18.50;29.60;;;;;;10042296;28;20041;-77
2021/04/28 11:40:08;;;;;;;;;;;;;;;;;;10066565;28;20045;-76
2021/04/28 11:45:03;;;;;;;12.77;3.97;;;;;;;;;;10058516;28;19921;-75
2021/04/28 11:50:00;;;;;;;8.52;4.13;;;19.20;29.80;;;;;;10067365;28;20049;-77
2021/04/28 11:54:56;;;;;;;10.45;3.97;;;20.00;30.00;;;;;;10078746;28;20460;-77
2021/04/28 11:59:51;;;;;;;8.40;4.05;;;19.40;28.40;;;;;;10048894;28;20467;-77
2021/04/28 12:04:49;;;;;;;9.90;4.65;;;;;;;;;;10049303;28;20123;-76
2021/04/28 12:09:47;;;;;;;11.60;4.05;;;21.60;26.80;;;;;;10047690;28;20108;-76
2021/04/28 12:14:48;;;;;;;7.78;4.15;;;21.50;25.20;;;;;;10065795;28;20144;-77
2021/04/28 12:19:48;;;;;;;10.85;4.28;;;22.70;25.00;;;;;;10015706;28;20065;-80
2021/04/28 12:24:47;;;;;;;10.25;4.25;;;23.00;23.30;;;;;;10048589;28;20045;-77
2021/04/28 12:29:44;;;;;;;9.38;4.25;;;22.60;23.80;;;;;;10064448;28;20448;-77
2021/04/28 12:34:47;;;;;;;10.65;4.72;;;23.20;22.90;;;;;;10065228;28;20081;-79
2021/04/28 12:39:48;;;;;;;8.82;4.00;;;23.20;23.30;;;;;;10063994;28;20088;-75
2021/04/28 12:44:46;;;;;;;8.65;3.92;;;;;;;;;;10045651;28;20076;-77
2021/04/28 12:49:40;;;;;;;8.80;4.00;;;23.60;25.10;;;;;;10062319;28;20046;-77
2021/04/28 12:54:39;;;;;;;11.02;4.00;;;;;;;;;;10062471;28;20046;-78
2021/04/28 12:59:35;;;;;;;8.35;3.83;;;21.50;27.10;;;;;;10045411;28;20052;-75
2021/04/28 13:04:32;;;;;;;5.43;3.50;;;21.00;27.70;;;;;;10044896;28;20041;-78
2021/04/28 13:09:29;;;;;;;7.07;4.13;;;21.90;27.20;;;;;;10011427;28;20084;-77
2021/04/28 13:14:47;;;;;;;7.80;3.88;;;21.20;27.00;;;;;;10043682;28;20439;-77
2021/04/28 13:19:42;;;;;;;9.18;3.72;;;21.00;28.20;;;;;;10044762;28;20560;-76
2021/04/28 13:24:43;;;;;;;8.18;3.90;;;21.50;28.80;;;;;;10044093;28;20049;-77
2021/04/28 13:29:55;;;;;;;9.82;3.55;;;21.30;27.70;;;;;;10061922;28;20159;-78
2021/04/28 13:34:50;;;;;;;8.80;3.90;;;21.60;29.50;;;;;;10044479;28;20075;-75
2021/04/28 13:39:47;;;;;;;8.80;4.25;;;20.90;29.70;;;;;;10044281;28;20090;-77
2021/04/28 13:44:42;;;;;;;8.68;3.97;;;;;;;;;;10044053;28;20400;-76
2021/04/28 13:49:40;;;;;;;7.22;4.07;;;20.70;29.90;;;;;;10044031;28;20041;-76
2021/04/28 13:54:44;;;;;;;12.30;4.60;;;22.00;29.90;;;;;;10042085;28;20137;-77
2021/04/28 13:59:39;;;;;;;7.22;3.83;;;;;;;;;;10026763;28;20079;-76
2021/04/28 14:04:40;;;;;;;6.60;3.30;;;21.40;31.70;;;;;;10060482;28;20523;-76
2021/04/28 14:09:39;;;;;;;9.50;3.38;;;21.10;32.40;;;;;;10061307;28;20045;-77
2021/04/28 14:14:35;;;;;;;11.50;3.72;;;20.10;31.80;;;;;;10043175;28;20494;-75
2021/04/28 14:19:30;;;;;;;8.70;4.03;;;20.70;32.40;;;;;;10060701;28;20053;-77
2021/04/28 14:24:42;;;;;;;8.88;3.83;;;;;;;;;;10044321;28;20080;-76
2021/04/28 14:29:38;;;;;;;10.13;4.60;;;19.60;33.40;;;;;;10059577;28;20438;-77
2021/04/28 14:34:54;;;;;;;9.27;4.53;;;20.80;35.40;;;;;;10042210;28;20054;-76
2021/04/28 14:39:51;;;;;;;6.63;4.40;;;21.50;35.30;;;;;;10038243;28;20053;-76
2021/04/28 14:44:48;;;;;;;7.75;4.60;;;;;;;;;;10005196;28;20145;-78
2021/04/28 14:49:43;;;;;;;9.43;4.50;;;;;;;;;;10021228;28;20049;-78
2021/04/28 14:54:52;;;;;;;5.68;3.92;;;21.20;38.40;;;;;;10025946;28;20049;-77
2021/04/28 14:59:46;;;;;;;12.65;4.97;;;18.40;37.50;;;;;;10041527;28;20064;-77
2021/04/28 15:04:41;;;;;;;9.65;4.57;;;19.90;36.60;;;;;;10041314;28;20041;-77
2021/04/28 15:09:35;;;;;;;10.52;4.15;;;18.00;38.60;;;;;;10042146;28;20053;-76
2021/04/28 15:14:30;;;;;;;10.15;4.32;;;19.40;40.90;;;;;;10027233;28;20057;-77
2021/04/28 15:19:25;;;;;;;6.82;4.13;;;19.70;40.70;;;;;;10041283;28;20049;-76
2021/04/28 15:24:19;;;;;;;12.07;4.97;;;;;;;;;;10041627;28;20470;-75
2021/04/28 15:29:15;;;;;;;9.15;4.35;;;19.70;41.10;;;;;;10058632;28;20496;-75
2021/04/28 15:34:10;;;;;;;14.80;4.95;;;19.70;40.20;;;;;;10059934;28;20053;-78
2021/04/28 15:39:05;;;;;;;12.52;4.95;;;18.60;39.80;;;;;;10058398;28;20130;-75
2021/04/28 15:43:59;;;;;;;8.82;4.95;;;20.60;39.60;;;;;;10057795;28;20053;-75
2021/04/28 15:48:53;;;;;;;12.25;5.50;;;19.20;39.80;;;;;;10039738;28;20053;-76
2021/04/28 15:53:49;;;;;;;11.13;5.00;;;19.10;40.30;;;;;;10023788;28;20053;-74
2021/04/28 15:58:42;;;;;;;10.23;4.13;;;19.00;40.50;;;;;;10040337;28;20558;-75
2021/04/28 16:03:36;;;;;;;9.10;5.15;;;19.00;41.40;;;;;;10057487;28;20076;-75
2021/04/28 16:08:30;;;;;;;9.55;4.38;;;19.00;41.00;;;;;;10057652;28;20053;-75
2021/04/28 16:13:24;;;;;;;12.00;5.22;;;18.90;41.60;;;;;;10057919;28;20041;-74
2021/04/28 16:18:18;;;;;;;12.98;5.03;;;18.90;42.20;;;;;;10039645;28;20420;-74
2021/04/28 16:23:12;;;;;;;12.60;5.88;;;;;;;;;;10061086;28;20124;-74
2021/04/28 16:28:05;;;;;;;14.13;6.25;;;18.80;42.00;;;;;;10065045;28;20057;-75
2021/04/28 16:33:00;;;;;;;16.25;6.70;;;18.60;42.60;;;;;;10064869;28;20080;-75
2021/04/28 16:37:53;;;;;;;15.35;6.95;;;18.60;44.00;;;;;;10047404;28;20397;-78
2021/04/28 16:42:47;;;;;;;24.45;7.88;;;18.60;44.40;;;;;;10046268;28;20045;-77
2021/04/28 16:47:41;;;;;;;14.93;7.32;;;18.50;44.90;;;;;;10060947;28;20045;-79
2021/04/28 16:52:44;;;;;;;16.00;6.93;;;18.40;44.60;;;;;;10027569;28;20050;-77
2021/04/28 16:57:38;;;;;;;23.05;7.60;;;18.40;45.10;;;;;;10041606;28;20049;-78
2021/04/28 17:02:33;;;;;;;21.50;7.80;;;18.30;45.50;;;;;;10063238;28;20056;-79
2021/04/28 17:07:26;;;;;;;19.67;8.35;;;18.30;45.90;;;;;;10065661;28;20064;-78
2021/04/28 17:12:21;;;;;;;19.00;8.00;;;18.30;46.90;;;;;;10064083;28;20048;-80
2021/04/28 17:17:14;;;;;;;22.10;8.35;;;18.10;46.70;;;;;;10045599;28;20049;-80
2021/04/28 17:22:09;;;;;;;25.83;9.00;;;;;;;;;;10063059;28;20046;-80
2021/04/28 17:27:02;;;;;;;23.35;9.25;;;19.20;52.80;;;;;;10063153;28;20107;-79
2021/04/28 17:32:16;;;;;;;23.15;10.10;;;;;;;;;;10045108;28;20167;-81
2021/04/28 17:37:13;;;;;;;21.70;10.48;;;;;;;;;;10062644;28;20045;-79
2021/04/28 17:42:06;;;;;;;23.38;11.80;;;;;;;;;;10044417;28;20053;-78
2021/04/28 17:47:01;;;;;;;27.35;11.18;;;17.90;53.20;;;;;;10062566;28;20048;-77
2021/04/28 17:51:55;;;;;;;22.35;11.65;;;18.70;54.00;;;;;;10044661;28;20427;-77
2021/04/28 17:56:50;;;;;;;26.67;12.13;;;;;;;;;;10044150;28;20053;-78
2021/04/28 18:01:45;;;;;;;27.52;12.65;;;17.90;54.50;;;;;;10061711;28;20488;-80
2021/04/28 18:06:40;;;;;;;23.40;12.52;;;17.90;55.50;;;;;;10061975;28;20053;-79
2021/04/28 18:11:35;;;;;;;22.13;12.65;;;;;;;;;;10061308;28;20041;-78
2021/04/28 18:16:30;;;;;;;29.85;13.68;;;18.90;56.20;;;;;;10061185;28;20047;-79
2021/04/28 18:21:28;;;;;;;24.63;12.48;;;;;;;;;;10043147;28;20053;-76
2021/04/28 18:26:24;;;;;;;28.65;13.95;;;18.40;57.60;;;;;;10042978;28;20050;-76
2021/04/28 18:31:20;;;;;;;28.42;13.35;;;18.00;55.80;;;;;;10061065;28;20583;-78
2021/04/28 18:36:14;;;;;;;28.77;14.27;;;;;;;;;;10069896;28;20041;-76
2021/04/28 18:41:08;;;;;;;25.85;13.57;;;;;;;;;;10045163;28;20068;-79
2021/04/28 18:46:03;;;;;;;32.78;15.02;;;18.20;58.60;;;;;;10042402;28;20540;-77
2021/04/28 18:50:58;;;;;;;30.08;14.30;;;;;;;;;;10060362;28;20049;-79
2021/04/28 18:55:51;;;;;;;27.95;14.65;;;18.90;59.10;;;;;;10060849;28;20507;-78
2021/04/28 19:00:45;;;;;;;30.50;15.60;;;16.80;56.50;;;;;;10060484;28;20519;-79
2021/04/28 19:05:38;;;;;;;31.67;14.90;;;16.70;56.60;;;;;;10060241;28;20045;-78
2021/04/28 19:10:33;;;;;;;33.50;15.00;;;17.10;62.60;;;;;;10042585;28;20507;-78
2021/04/28 19:15:27;;;;;;;33.88;15.63;;;;;;;;;;10060154;28;20389;-79
2021/04/28 19:20:21;;;;;;;32.90;16.67;;;;;;;;;;10041809;28;20357;-77
2021/04/28 19:25:16;;;;;;;25.83;13.70;;;16.90;57.20;;;;;;10041659;28;20057;-81
2021/04/28 19:30:12;;;;;;;26.23;14.32;;;16.90;59.10;;;;;;9980743;28;20125;-78
2021/04/28 19:35:07;;;;;;;29.52;15.13;;;16.60;58.20;;;;;;9979197;28;20054;-77
2021/04/28 19:40:00;;;;;;;34.33;15.73;;;16.70;58.00;;;;;;9980207;28;20054;-77
2021/04/28 19:44:56;;;;;;;30.77;15.52;;;16.80;58.00;;;;;;9980334;28;20053;-76
2021/04/28 19:49:51;;;;;;;35.45;15.68;;;16.70;58.20;;;;;;9978755;28;20100;-78
2021/04/28 19:54:45;;;;;;;32.03;15.23;;;;;;;;;;9980208;28;20042;-79
2021/04/28 19:59:39;;;;;;;32.15;14.65;;;;;;;;;;9985737;28;20072;-77
2021/04/28 20:04:33;;;;;;;31.52;14.90;;;;;;;;;;9986983;28;20057;-81
2021/04/28 20:09:29;;;;;;;30.42;15.73;;;18.00;62.20;;;;;;9986503;28;20290;-78
2021/04/28 20:14:23;;;;;;;32.40;15.90;;;;;;;;;;9987299;28;20117;-75
2021/04/28 20:19:16;;;;;;;30.75;16.23;;;17.50;61.20;;;;;;9987409;28;20069;-76
2021/04/28 20:24:10;;;;;;;32.20;15.65;;;;;;;;;;9985608;28;20054;-77
2021/04/28 20:29:05;;;;;;;33.33;15.73;;;;;;;;;;10015667;28;20064;-76
2021/04/28 20:33:59;;;;;;;33.15;15.82;;;18.10;63.70;;;;;;10025797;28;20507;-77
2021/04/28 20:38:53;;;;;;;30.83;15.95;;;18.60;64.20;;;;;;10025527;28;20046;-77
2021/04/28 20:43:46;;;;;;;31.40;16.00;;;16.50;59.90;;;;;;10021506;28;20558;-77
2021/04/28 20:48:41;;;;;;;36.85;17.17;;;16.60;60.10;;;;;;10004840;28;20528;-78
2021/04/28 20:53:34;;;;;;;33.75;17.30;;;16.60;59.80;;;;;;10022696;28;20488;-76
2021/04/28 20:58:28;;;;;;;31.63;16.77;;;16.50;60.40;;;;;;10023246;28;20050;-78
2021/04/28 21:03:24;;;;;;;33.20;17.52;;;16.30;60.60;;;;;;10023195;28;20077;-77
2021/04/28 21:08:18;;;;;;;32.00;16.65;;;15.60;61.00;;;;;;10023460;28;20081;-78
2021/04/28 21:13:13;;;;;;;29.02;16.38;;;15.90;61.50;;;;;;10023487;28;20054;-79
2021/04/28 21:18:06;;;;;;;29.60;16.95;;;16.20;61.70;;;;;;10024932;28;20476;-77
2021/04/28 21:23:00;;;;;;;28.83;16.35;;;16.20;61.50;;;;;;10022418;28;20520;-79
2021/04/28 21:27:55;;;;;;;33.03;17.75;;;16.20;61.80;;;;;;10043587;28;20133;-78
2021/04/28 21:32:51;;;;;;;33.72;18.50;;;16.20;62.30;;;;;;10063254;28;20045;-80
2021/04/28 21:37:46;;;;;;;28.88;16.60;;;;;;;;;;10061887;28;20488;-78
2021/04/28 21:42:41;;;;;;;31.88;16.90;;;17.20;64.60;;;;;;10061132;28;20048;-76
2021/04/28 21:47:35;;;;;;;29.05;16.67;;;15.90;64.40;;;;;;10044425;28;20067;-77
2021/04/28 21:52:29;;;;;;;30.98;16.88;;;16.30;64.40;;;;;;10062353;28;20057;-76
2021/04/28 21:57:22;;;;;;;29.90;16.52;;;;;;;;;;10062322;28;20052;-76
2021/04/28 22:02:16;;;;;;;31.08;17.58;;;14.50;61.90;;;;;;10061125;28;20037;-78
2021/04/28 22:07:11;;;;;;;36.30;17.77;;;;;;;;;;10061981;28;20059;-76
2021/04/28 22:12:05;;;;;;;33.42;17.08;;;15.10;61.90;;;;;;10059833;28;20060;-77
2021/04/28 22:17:00;;;;;;;33.10;16.98;;;14.90;62.60;;;;;;10060152;28;20046;-77
2021/04/28 22:21:54;;;;;;;32.47;16.80;;;;;;;;;;10060868;28;20042;-76
2021/04/28 22:26:50;;;;;;;28.38;15.57;;;15.60;63.10;;;;;;10060947;28;20076;-77
2021/04/28 22:31:43;;;;;;;32.25;17.20;;;15.30;62.50;;;;;;10062131;28;20486;-76
2021/04/28 22:36:37;;;;;;;34.53;16.55;;;;;;;;;;10061114;28;20056;-76
2021/04/28 22:41:32;;;;;;;28.42;16.40;;;15.70;62.80;;;;;;10061231;28;20132;-84
2021/04/28 22:46:26;;;;;;;30.00;17.73;;;16.00;63.30;;;;;;10042905;28;20061;-78
2021/04/28 22:51:19;;;;;;;32.45;18.80;;;15.90;63.50;;;;;;10058546;28;20060;-78
2021/04/28 22:56:13;;;;;;;28.85;17.85;;;15.80;64.40;;;;;;10060088;28;20410;-78
2021/04/28 23:01:06;;;;;;;29.70;18.48;;;15.70;69.10;;;;;;10060019;28;20052;-78
2021/04/28 23:06:00;;;;;;;29.63;18.17;;;16.00;64.80;;;;;;10040339;28;20049;-79
2021/04/28 23:10:54;;;;;;;33.78;20.15;;;16.60;65.60;;;;;;10040113;28;20049;-81
2021/04/28 23:15:48;;;;;;;32.67;20.15;;;15.60;64.70;;;;;;10057681;28;20045;-81
2021/04/28 23:20:41;;;;;;;34.70;19.63;;;15.70;65.10;;;;;;10059259;28;20053;-80
2021/04/28 23:25:36;;;;;;;29.15;18.92;;;;;;;;;;10040095;28;20419;-82
2021/04/28 23:30:29;;;;;;;33.30;18.73;;;14.10;65.80;;;;;;10039324;28;20415;-80
2021/04/28 23:35:23;;;;;;;31.70;20.15;;;;;;;;;;10066980;28;20046;-81
2021/04/28 23:40:17;;;;;;;35.63;20.58;;;14.70;66.20;;;;;;10069876;28;20050;-79
2021/04/28 23:45:13;;;;;;;36.33;19.80;;;15.00;66.90;;;;;;10067664;28;20496;-80
2021/04/28 23:50:07;;;;;;;35.25;19.40;;;15.30;67.30;;;;;;10067451;28;20473;-81
2021/04/28 23:55:01;;;;;;;34.08;19.90;;;;;;;;;;10067179;28;20103;-82
2021/04/28 23:59:55;;;;;;;36.42;20.77;;;14.90;69.30;;;;;;10067128;28;20115;-80
